MLP334 LIMC-EFHK
Flight info
| Callsign | MLP334 |
|---|---|
| Flight time | N/A |
| Altitude | 40000 |
| Route | OSKOR M985 TAGIP DCT BRENO DCT KONIN DCT ERNAS M726 LASGA DCT MAG DCT BANUB DCT GOSOT DCT EVADI Y370 DIVAM |
| Aircraft | A359/H-SDE2E3GHIJ3J4J5LM1ORWXY/LB1D1 |
Departure
| Time | 2026-05-05 15:15 |
|---|---|
| Airport | Milan Malpensa International Airport (LIMC) |
Arrival
| Time | N/A |
|---|---|
| Airport | Helsinki Vantaa Airport (EFHK) |
| Time | Latitude | Longitude | Altitude | Speed | Heading |
|---|---|---|---|---|---|
| 2026-05-05 14:37 | 45.62011 | 8.71860 | 743 ft | 0 kts | 261° |
| 2026-05-05 15:03 | 45.62014 | 8.71881 | 740 ft | 4 kts | 258° |
| 2026-05-05 15:04 | 45.62019 | 8.71919 | 739 ft | 4 kts | 256° |
| 2026-05-05 15:04 | 45.62025 | 8.71952 | 739 ft | 3 kts | 257° |
| 2026-05-05 15:04 | 45.62032 | 8.71980 | 739 ft | 4 kts | 220° |
| 2026-05-05 15:04 | 45.62049 | 8.71993 | 740 ft | 4 kts | 182° |
| 2026-05-05 15:05 | 45.62081 | 8.71989 | 739 ft | 4 kts | 169° |
| 2026-05-05 15:08 | 45.62073 | 8.71991 | 741 ft | 6 kts | 169° |
| 2026-05-05 15:08 | 45.62028 | 8.72003 | 742 ft | 8 kts | 169° |
| 2026-05-05 15:08 | 45.61964 | 8.72020 | 742 ft | 10 kts | 169° |
| 2026-05-05 15:08 | 45.61895 | 8.72039 | 743 ft | 10 kts | 169° |
| 2026-05-05 15:09 | 45.61818 | 8.72059 | 743 ft | 14 kts | 169° |
| 2026-05-05 15:09 | 45.61690 | 8.72094 | 741 ft | 21 kts | 168° |
| 2026-05-05 15:09 | 45.61546 | 8.72134 | 741 ft | 21 kts | 169° |
| 2026-05-05 15:09 | 45.61406 | 8.72173 | 740 ft | 20 kts | 169° |
| 2026-05-05 15:10 | 45.61269 | 8.72211 | 740 ft | 20 kts | 169° |
| 2026-05-05 15:10 | 45.61135 | 8.72249 | 741 ft | 19 kts | 169° |
| 2026-05-05 15:10 | 45.61004 | 8.72285 | 743 ft | 19 kts | 169° |
| 2026-05-05 15:10 | 45.60870 | 8.72322 | 741 ft | 23 kts | 169° |
| 2026-05-05 15:11 | 45.60687 | 8.72385 | 741 ft | 27 kts | 152° |
| 2026-05-05 15:11 | 45.60630 | 8.72613 | 741 ft | 25 kts | 95° |
| 2026-05-05 15:11 | 45.60613 | 8.72851 | 743 ft | 24 kts | 96° |
| 2026-05-05 15:11 | 45.60596 | 8.73081 | 740 ft | 23 kts | 96° |
| 2026-05-05 15:12 | 45.60642 | 8.73272 | 741 ft | 21 kts | 30° |
| 2026-05-05 15:12 | 45.60769 | 8.73349 | 740 ft | 20 kts | 21° |
| 2026-05-05 15:12 | 45.60896 | 8.73401 | 741 ft | 18 kts | 358° |
| 2026-05-05 15:12 | 45.61033 | 8.73370 | 742 ft | 23 kts | 349° |
| 2026-05-05 15:13 | 45.61205 | 8.73324 | 740 ft | 28 kts | 349° |
| 2026-05-05 15:13 | 45.61408 | 8.73268 | 741 ft | 29 kts | 349° |
| 2026-05-05 15:13 | 45.61569 | 8.73224 | 742 ft | 11 kts | 353° |
| 2026-05-05 15:13 | 45.61614 | 8.73262 | 740 ft | 7 kts | 68° |
| 2026-05-05 15:14 | 45.61628 | 8.73368 | 743 ft | 11 kts | 80° |
| 2026-05-05 15:14 | 45.61615 | 8.73462 | 741 ft | 10 kts | 120° |
| 2026-05-05 15:14 | 45.61584 | 8.73580 | 743 ft | 16 kts | 97° |
| 2026-05-05 15:14 | 45.61637 | 8.73722 | 740 ft | 19 kts | 16° |
| 2026-05-05 15:15 | 45.61803 | 8.73687 | 741 ft | 41 kts | 349° |
| 2026-05-05 15:15 | 45.62322 | 8.73542 | 745 ft | 109 kts | 349° |
| 2026-05-05 15:15 | 45.63263 | 8.73282 | 765 ft | 164 kts | 351° |
| 2026-05-05 15:15 | 45.64392 | 8.72960 | 1572 ft | 141 kts | 348° |
| 2026-05-05 15:16 | 45.65427 | 8.72842 | 2135 ft | 159 kts | 15° |
| 2026-05-05 15:16 | 45.66315 | 8.73874 | 2307 ft | 179 kts | 56° |
| 2026-05-05 15:16 | 45.67020 | 8.75457 | 2626 ft | 197 kts | 58° |
| 2026-05-05 15:16 | 45.67869 | 8.77064 | 3131 ft | 207 kts | 51° |
| 2026-05-05 15:17 | 45.68843 | 8.78558 | 3792 ft | 209 kts | 47° |
| 2026-05-05 15:17 | 45.69906 | 8.80001 | 4441 ft | 212 kts | 44° |
| 2026-05-05 15:17 | 45.71019 | 8.81409 | 5094 ft | 215 kts | 43° |
| 2026-05-05 15:17 | 45.72102 | 8.82928 | 5584 ft | 225 kts | 52° |
| 2026-05-05 15:18 | 45.72886 | 8.84972 | 5835 ft | 245 kts | 71° |
| 2026-05-05 15:18 | 45.73343 | 8.87412 | 6166 ft | 262 kts | 81° |
| 2026-05-05 15:18 | 45.73585 | 8.90033 | 6776 ft | 268 kts | 86° |
| 2026-05-05 15:18 | 45.73710 | 8.92736 | 7384 ft | 275 kts | 88° |
| 2026-05-05 15:19 | 45.73792 | 8.95497 | 7982 ft | 281 kts | 89° |
| 2026-05-05 15:19 | 45.73875 | 8.98321 | 8601 ft | 286 kts | 89° |
| 2026-05-05 15:19 | 45.73976 | 9.01194 | 9230 ft | 291 kts | 88° |
| 2026-05-05 15:19 | 45.74099 | 9.04117 | 9855 ft | 297 kts | 88° |
| 2026-05-05 15:20 | 45.74241 | 9.07105 | 10318 ft | 307 kts | 88° |
| 2026-05-05 15:20 | 45.74397 | 9.10241 | 10589 ft | 325 kts | 87° |
| 2026-05-05 15:20 | 45.74566 | 9.13554 | 10850 ft | 341 kts | 88° |
| 2026-05-05 15:20 | 45.74740 | 9.16999 | 11240 ft | 351 kts | 88° |
| 2026-05-05 15:21 | 45.74908 | 9.20469 | 11760 ft | 357 kts | 88° |
| 2026-05-05 15:21 | 45.75080 | 9.24043 | 12312 ft | 361 kts | 88° |
| 2026-05-05 15:21 | 45.75251 | 9.27655 | 12843 ft | 366 kts | 88° |
| 2026-05-05 15:21 | 45.75426 | 9.31318 | 13380 ft | 371 kts | 88° |
| 2026-05-05 15:22 | 45.75606 | 9.35031 | 13905 ft | 375 kts | 89° |
| 2026-05-05 15:22 | 45.75788 | 9.38780 | 14378 ft | 379 kts | 89° |
| 2026-05-05 15:22 | 45.75976 | 9.42553 | 14873 ft | 382 kts | 89° |
| 2026-05-05 15:22 | 45.76163 | 9.46375 | 15256 ft | 386 kts | 89° |
| 2026-05-05 15:23 | 45.76347 | 9.50232 | 15759 ft | 390 kts | 89° |
| 2026-05-05 15:23 | 45.76531 | 9.54125 | 16263 ft | 393 kts | 89° |
| 2026-05-05 15:23 | 45.76718 | 9.58046 | 16726 ft | 397 kts | 89° |
| 2026-05-05 15:23 | 45.76915 | 9.62010 | 17227 ft | 401 kts | 89° |
| 2026-05-05 15:24 | 45.77042 | 9.64661 | 17552 ft | 403 kts | 89° |
| 2026-05-05 15:24 | 45.77228 | 9.68696 | 17955 ft | 408 kts | 90° |
| 2026-05-05 15:24 | 45.77415 | 9.72774 | 18392 ft | 411 kts | 90° |
| 2026-05-05 15:24 | 45.77599 | 9.76866 | 18831 ft | 413 kts | 90° |
| 2026-05-05 15:25 | 45.77785 | 9.80992 | 19245 ft | 415 kts | 90° |
| 2026-05-05 15:25 | 45.77970 | 9.85132 | 19659 ft | 418 kts | 90° |
| 2026-05-05 15:25 | 45.78153 | 9.89301 | 20082 ft | 421 kts | 89° |
| 2026-05-05 15:25 | 45.78339 | 9.93508 | 20468 ft | 423 kts | 90° |
| 2026-05-05 15:26 | 45.78521 | 9.97724 | 20870 ft | 426 kts | 89° |
| 2026-05-05 15:26 | 45.78704 | 10.01980 | 21257 ft | 428 kts | 89° |
| 2026-05-05 15:26 | 45.78885 | 10.06251 | 21649 ft | 431 kts | 89° |
| 2026-05-05 15:26 | 45.79068 | 10.10560 | 22080 ft | 433 kts | 89° |
| 2026-05-05 15:27 | 45.79250 | 10.14884 | 22534 ft | 435 kts | 89° |
| 2026-05-05 15:27 | 45.79429 | 10.19169 | 22924 ft | 438 kts | 89° |
| 2026-05-05 15:27 | 45.79610 | 10.23537 | 23329 ft | 440 kts | 89° |
| 2026-05-05 15:27 | 45.79788 | 10.27916 | 23699 ft | 442 kts | 89° |
| 2026-05-05 15:28 | 45.79969 | 10.32337 | 23981 ft | 445 kts | 89° |
| 2026-05-05 15:28 | 45.80174 | 10.36779 | 24302 ft | 448 kts | 86° |
| 2026-05-05 15:28 | 45.80746 | 10.41193 | 24610 ft | 453 kts | 76° |
| 2026-05-05 15:28 | 45.81917 | 10.45406 | 24914 ft | 457 kts | 64° |
| 2026-05-05 15:29 | 45.83503 | 10.49371 | 25243 ft | 460 kts | 58° |
| 2026-05-05 15:29 | 45.85286 | 10.53207 | 25569 ft | 462 kts | 55° |
| 2026-05-05 15:29 | 45.87164 | 10.56961 | 25873 ft | 464 kts | 53° |
| 2026-05-05 15:29 | 45.89089 | 10.60703 | 26220 ft | 467 kts | 53° |
| 2026-05-05 15:30 | 45.91068 | 10.64414 | 26575 ft | 469 kts | 49° |
| 2026-05-05 15:30 | 45.93356 | 10.67764 | 26925 ft | 470 kts | 39° |
| 2026-05-05 15:30 | 45.96008 | 10.70491 | 27308 ft | 470 kts | 28° |
| 2026-05-05 15:30 | 45.98903 | 10.72699 | 27606 ft | 471 kts | 24° |
| 2026-05-05 15:31 | 46.01871 | 10.74722 | 28007 ft | 472 kts | 22° |
| 2026-05-05 15:31 | 46.04882 | 10.76656 | 28382 ft | 475 kts | 21° |
| 2026-05-05 15:31 | 46.07923 | 10.78555 | 28779 ft | 477 kts | 20° |
| 2026-05-05 15:31 | 46.10979 | 10.80462 | 29146 ft | 480 kts | 20° |
| 2026-05-05 15:32 | 46.14048 | 10.82391 | 29545 ft | 483 kts | 21° |
| 2026-05-05 15:32 | 46.17134 | 10.84352 | 29975 ft | 485 kts | 21° |
| 2026-05-05 15:32 | 46.20229 | 10.86339 | 30352 ft | 488 kts | 21° |
| 2026-05-05 15:32 | 46.23297 | 10.88327 | 30710 ft | 491 kts | 21° |
| 2026-05-05 15:33 | 46.26459 | 10.90381 | 31104 ft | 493 kts | 21° |
| 2026-05-05 15:33 | 46.29552 | 10.92398 | 31446 ft | 495 kts | 21° |
| 2026-05-05 15:33 | 46.32708 | 10.94456 | 31777 ft | 498 kts | 21° |
| 2026-05-05 15:33 | 46.35873 | 10.96523 | 32115 ft | 501 kts | 22° |
| 2026-05-05 15:34 | 46.39053 | 10.98604 | 32463 ft | 503 kts | 22° |
| 2026-05-05 15:34 | 46.42255 | 11.00702 | 32766 ft | 506 kts | 22° |
| 2026-05-05 15:34 | 46.45466 | 11.02806 | 33071 ft | 508 kts | 22° |
| 2026-05-05 15:34 | 46.48697 | 11.04929 | 33400 ft | 510 kts | 22° |
| 2026-05-05 15:35 | 46.51939 | 11.07063 | 33698 ft | 512 kts | 22° |
| 2026-05-05 15:35 | 46.55192 | 11.09206 | 34000 ft | 514 kts | 22° |
| 2026-05-05 15:35 | 46.58498 | 11.11384 | 34269 ft | 516 kts | 22° |
| 2026-05-05 15:35 | 46.61740 | 11.13523 | 34539 ft | 517 kts | 22° |
| 2026-05-05 15:36 | 46.65017 | 11.15689 | 34877 ft | 517 kts | 22° |
| 2026-05-05 15:36 | 46.68291 | 11.17857 | 35258 ft | 516 kts | 22° |
| 2026-05-05 15:36 | 46.71556 | 11.20021 | 35683 ft | 514 kts | 22° |
| 2026-05-05 15:36 | 46.74810 | 11.22181 | 36093 ft | 513 kts | 22° |
| 2026-05-05 15:37 | 46.78059 | 11.24342 | 36506 ft | 512 kts | 22° |
| 2026-05-05 15:37 | 46.81299 | 11.26498 | 36893 ft | 511 kts | 22° |
| 2026-05-05 15:37 | 46.84530 | 11.28652 | 37298 ft | 510 kts | 22° |
| 2026-05-05 15:37 | 46.87756 | 11.30804 | 37626 ft | 509 kts | 22° |
| 2026-05-05 15:38 | 46.90974 | 11.32951 | 37923 ft | 509 kts | 22° |
| 2026-05-05 15:38 | 46.94212 | 11.35039 | 38263 ft | 507 kts | 19° |
| 2026-05-05 15:38 | 46.97554 | 11.36594 | 38642 ft | 501 kts | 10° |
| 2026-05-05 15:38 | 47.00972 | 11.37441 | 38871 ft | 495 kts | 1° |
| 2026-05-05 15:39 | 47.04412 | 11.37704 | 39031 ft | 494 kts | 358° |
| 2026-05-05 15:39 | 47.07854 | 11.37775 | 39255 ft | 493 kts | 356° |
| 2026-05-05 15:39 | 47.11273 | 11.37737 | 39449 ft | 491 kts | 355° |
| 2026-05-05 15:39 | 47.14698 | 11.37650 | 39657 ft | 491 kts | 355° |
| 2026-05-05 15:40 | 47.18118 | 11.37561 | 39808 ft | 493 kts | 355° |
| 2026-05-05 15:40 | 47.25001 | 11.37415 | 39832 ft | 501 kts | 356° |
| 2026-05-05 15:41 | 47.31976 | 11.37327 | 39832 ft | 501 kts | 356° |
| 2026-05-05 15:41 | 47.39005 | 11.37264 | 39831 ft | 502 kts | 356° |
| 2026-05-05 15:42 | 47.45992 | 11.37200 | 39831 ft | 503 kts | 356° |
| 2026-05-05 15:42 | 47.52941 | 11.37134 | 39809 ft | 502 kts | 356° |
| 2026-05-05 15:43 | 47.59947 | 11.37065 | 39809 ft | 503 kts | 356° |
| 2026-05-05 15:43 | 47.66962 | 11.36992 | 39810 ft | 503 kts | 356° |
| 2026-05-05 15:44 | 47.73973 | 11.36921 | 39809 ft | 503 kts | 356° |
| 2026-05-05 15:44 | 47.80972 | 11.36852 | 39818 ft | 503 kts | 356° |
| 2026-05-05 15:45 | 47.87950 | 11.36422 | 39819 ft | 501 kts | 352° |
| 2026-05-05 15:45 | 47.94889 | 11.35473 | 39828 ft | 501 kts | 351° |
| 2026-05-05 15:46 | 48.01782 | 11.34438 | 39829 ft | 501 kts | 351° |
| 2026-05-05 15:46 | 48.08727 | 11.33386 | 39831 ft | 501 kts | 351° |
| 2026-05-05 15:47 | 48.15685 | 11.32342 | 39829 ft | 502 kts | 351° |
| 2026-05-05 15:47 | 48.22646 | 11.31302 | 39827 ft | 502 kts | 351° |
| 2026-05-05 15:48 | 48.29603 | 11.30261 | 39819 ft | 503 kts | 351° |
| 2026-05-05 15:48 | 48.36580 | 11.29213 | 39816 ft | 503 kts | 351° |
| 2026-05-05 15:49 | 48.43503 | 11.28170 | 39816 ft | 503 kts | 351° |
| 2026-05-05 15:49 | 48.50483 | 11.27115 | 39800 ft | 503 kts | 351° |
| 2026-05-05 15:50 | 48.57448 | 11.26061 | 39801 ft | 503 kts | 351° |
| 2026-05-05 15:50 | 48.64421 | 11.25001 | 39804 ft | 504 kts | 351° |
| 2026-05-05 15:51 | 48.71405 | 11.23939 | 39802 ft | 503 kts | 351° |
| 2026-05-05 15:51 | 48.78373 | 11.22873 | 39803 ft | 503 kts | 351° |
| 2026-05-05 15:52 | 48.85361 | 11.22032 | 39803 ft | 505 kts | 356° |
| 2026-05-05 15:52 | 48.92406 | 11.21935 | 39799 ft | 506 kts | 358° |
| 2026-05-05 15:53 | 48.99450 | 11.21982 | 39796 ft | 506 kts | 358° |
| 2026-05-05 15:53 | 49.06495 | 11.22048 | 39792 ft | 506 kts | 358° |
| 2026-05-05 15:54 | 49.13546 | 11.22100 | 39787 ft | 506 kts | 358° |
| 2026-05-05 15:54 | 49.20557 | 11.22141 | 39791 ft | 506 kts | 358° |
| 2026-05-05 15:55 | 49.27599 | 11.22193 | 39797 ft | 506 kts | 358° |
| 2026-05-05 15:55 | 49.34659 | 11.22249 | 39794 ft | 506 kts | 358° |
| 2026-05-05 15:56 | 49.41696 | 11.22307 | 39805 ft | 506 kts | 358° |
| 2026-05-05 15:56 | 49.48742 | 11.22365 | 39801 ft | 506 kts | 358° |
| 2026-05-05 15:57 | 49.55787 | 11.22423 | 39802 ft | 506 kts | 358° |
| 2026-05-05 15:57 | 49.62823 | 11.22455 | 39795 ft | 505 kts | 358° |
| 2026-05-05 15:58 | 49.69851 | 11.22456 | 39787 ft | 505 kts | 358° |
| 2026-05-05 15:58 | 49.76885 | 11.22461 | 39776 ft | 505 kts | 358° |
| 2026-05-05 15:59 | 49.83911 | 11.22488 | 39773 ft | 504 kts | 358° |
| 2026-05-05 15:59 | 49.90884 | 11.22534 | 39775 ft | 504 kts | 358° |